createdAt,value
2023-04-20T00:01:05.292Z,100675.97
2023-04-20T00:06:01.275Z,100690.38
2023-04-20T00:10:55.903Z,100681.34
2023-04-20T00:15:49.038Z,100674.19
2023-04-20T00:20:42.346Z,100603.88
2023-04-20T00:25:35.652Z,100661.19
2023-04-20T00:30:30.370Z,100637.63
2023-04-20T00:35:24.150Z,100674.97
2023-04-20T00:40:18.129Z,100634.41
2023-04-20T00:45:11.815Z,100654.28
2023-04-20T00:50:07.839Z,100627.72
2023-04-20T00:55:01.945Z,100683.13
2023-04-20T00:59:55.369Z,100593.59
2023-04-20T01:04:49.073Z,100638.63
2023-04-20T01:09:49.600Z,100578.16
2023-04-20T01:14:42.879Z,100662.94
2023-04-20T01:19:36.108Z,100603.75
2023-04-20T01:24:30.707Z,100575.78
2023-04-20T01:29:25.461Z,100579.09
2023-04-20T01:34:18.770Z,100638.28
2023-04-20T01:39:14.360Z,100642.03
2023-04-20T01:44:09.014Z,100642.59
2023-04-20T01:49:04.255Z,100641.78
2023-04-20T01:53:57.444Z,100642.59
2023-04-20T01:58:50.718Z,100649.59
2023-04-20T02:03:45.687Z,100647.81
2023-04-20T02:08:39.668Z,100646.16
2023-04-20T02:13:34.258Z,100644.00
2023-04-20T02:18:27.800Z,100637.78
2023-04-20T02:23:22.538Z,100647.41
2023-04-20T02:28:15.945Z,100615.59
2023-04-20T02:33:09.168Z,100550.25
2023-04-20T02:38:02.495Z,100620.56
2023-04-20T02:42:58.200Z,100618.88
2023-04-20T02:47:55.118Z,100618.28
2023-04-20T02:52:48.486Z,100654.06
2023-04-20T02:57:52.557Z,100572.66
2023-04-20T03:02:49.980Z,100648.56
2023-04-20T03:07:43.752Z,100667.00
2023-04-20T03:12:39.133Z,100647.72
2023-04-20T03:17:52.599Z,100651.09
2023-04-20T03:22:46.593Z,100649.31
2023-04-20T03:27:40.442Z,100591.13
2023-04-20T03:32:38.544Z,100641.34
2023-04-20T03:37:33.412Z,100674.56
2023-04-20T03:42:26.779Z,100639.66
2023-04-20T03:47:20.953Z,100503.81
2023-04-20T03:52:14.142Z,100651.94
2023-04-20T03:57:09.070Z,100627.81
2023-04-20T04:02:02.741Z,100656.81
2023-04-20T04:06:56.349Z,100638.50
2023-04-20T04:11:50.389Z,100618.50
2023-04-20T04:16:45.031Z,100688.94
2023-04-20T04:21:39.547Z,100691.31
2023-04-20T04:26:33.722Z,100656.22
2023-04-20T04:31:27.733Z,100677.88
2023-04-20T04:36:29.575Z,100642.78
2023-04-20T04:41:25.707Z,100708.47
2023-04-20T04:46:25.719Z,100689.47
2023-04-20T04:51:19.138Z,100695.19
2023-04-20T04:56:14.428Z,100653.91
2023-04-20T05:01:07.634Z,100697.31
2023-04-20T05:06:01.327Z,100665.16
2023-04-20T05:10:54.607Z,100684.94
2023-04-20T05:15:49.370Z,100729.50
2023-04-20T05:20:42.636Z,100720.34
2023-04-20T05:25:36.517Z,100734.97
2023-04-20T05:30:29.723Z,100686.97
2023-04-20T05:35:24.315Z,100723.84
2023-04-20T05:40:17.758Z,100727.38
2023-04-20T05:45:12.805Z,100756.88
2023-04-20T05:50:07.096Z,100726.75
2023-04-20T05:55:03.954Z,100736.22
2023-04-20T05:59:57.229Z,100724.47
2023-04-20T06:04:50.707Z,100770.56
2023-04-20T06:09:43.975Z,100771.19
2023-04-20T06:14:40.189Z,100744.56
2023-04-20T06:19:33.405Z,100740.91
2023-04-20T06:24:28.030Z,100716.50
2023-04-20T06:29:21.236Z,100727.84
2023-04-20T06:34:18.966Z,100763.91
2023-04-20T06:39:14.477Z,100740.94
2023-04-20T06:44:07.824Z,100775.72
2023-04-20T06:49:01.051Z,100769.34
2023-04-20T06:53:55.747Z,100768.28
2023-04-20T06:58:48.992Z,100775.66
2023-04-20T07:03:42.324Z,100746.03
2023-04-20T07:08:38.442Z,100762.72
2023-04-20T07:13:34.058Z,100779.44
2023-04-20T07:18:27.222Z,100729.31
2023-04-20T07:23:20.334Z,100785.50
2023-04-20T07:28:13.535Z,100794.88
2023-04-20T07:33:09.493Z,100779.88
2023-04-20T07:38:02.765Z,100804.03
2023-04-20T07:42:56.186Z,100783.22
2023-04-20T07:47:51.565Z,100775.97
2023-04-20T07:52:50.547Z,100796.56
2023-04-20T07:57:43.740Z,100769.34
2023-04-20T08:02:37.058Z,100797.31
2023-04-20T08:07:30.355Z,100666.22
2023-04-20T08:12:28.218Z,100758.91
2023-04-20T08:17:21.525Z,100791.50
2023-04-20T08:22:14.770Z,100793.41
2023-04-20T08:27:09.719Z,100794.34
2023-04-20T08:32:05.539Z,100767.13
2023-04-20T08:36:58.675Z,100795.19
2023-04-20T08:41:57.583Z,100772.03
2023-04-20T08:46:54.925Z,100782.25
2023-04-20T08:51:52.872Z,100724.00
2023-04-20T08:56:47.439Z,100774.03
2023-04-20T09:01:41.942Z,100799.84
2023-04-20T09:06:36.193Z,100654.81
2023-04-20T09:11:30.935Z,100665.09
2023-04-20T09:16:24.492Z,100797.31
2023-04-20T09:21:17.817Z,100653.69
2023-04-20T09:26:26.176Z,100772.78
2023-04-20T09:31:22.064Z,100764.28
2023-04-20T09:36:21.596Z,100714.06
2023-04-20T09:41:19.453Z,100790.97
2023-04-20T09:46:13.570Z,100712.19
2023-04-20T09:51:08.791Z,100731.53
2023-04-20T09:56:07.620Z,100784.56
2023-04-20T10:01:01.091Z,100782.91
2023-04-20T10:05:55.889Z,100760.25
2023-04-20T10:10:52.691Z,100706.94
2023-04-20T10:15:48.592Z,100690.66
2023-04-20T10:20:47.282Z,100726.75
2023-04-20T10:26:02.890Z,100601.63
2023-04-20T10:30:59.296Z,100777.34
2023-04-20T10:35:55.450Z,100678.38
2023-04-20T10:40:49.253Z,100758.28
2023-04-20T10:45:44.087Z,100677.97
2023-04-20T10:50:41.510Z,100757.84
2023-04-20T10:55:38.133Z,100689.25
2023-04-20T11:00:34.330Z,100644.28
2023-04-20T11:05:29.143Z,100756.22
2023-04-20T11:10:24.352Z,100702.03
2023-04-20T11:15:17.988Z,100739.63
2023-04-20T11:20:16.484Z,100741.75
2023-04-20T11:25:12.887Z,100701.72
2023-04-20T11:30:12.085Z,100724.91
2023-04-20T11:35:07.913Z,100683.91
2023-04-20T11:40:01.946Z,100672.25
2023-04-20T11:44:57.034Z,100657.84
2023-04-20T11:49:50.964Z,100699.72
2023-04-20T11:54:44.290Z,100703.88
2023-04-20T11:59:37.732Z,100693.91
2023-04-20T12:04:33.409Z,100595.66
2023-04-20T12:09:27.145Z,100685.19
2023-04-20T12:14:20.474Z,100616.19
2023-04-20T12:19:15.610Z,100677.38
2023-04-20T12:24:10.344Z,100683.25
2023-04-20T12:29:03.573Z,100676.53
2023-04-20T12:33:56.820Z,100673.63
2023-04-20T12:38:53.926Z,100508.38
2023-04-20T12:43:48.898Z,100690.56
2023-04-20T12:48:42.624Z,100670.81
2023-04-20T12:53:35.854Z,100703.16
2023-04-20T12:58:29.067Z,100703.00
2023-04-20T13:03:23.877Z,100663.13
2023-04-20T13:08:17.293Z,100664.09
2023-04-20T13:13:11.714Z,100689.81
2023-04-20T13:18:05.375Z,100616.94
2023-04-20T13:23:01.589Z,100642.75
2023-04-20T13:27:55.500Z,100501.84
2023-04-20T13:32:48.939Z,100610.91
2023-04-20T13:37:43.143Z,100530.75
2023-04-20T13:42:38.048Z,100620.78
2023-04-20T13:47:33.504Z,100649.94
2023-04-20T13:52:26.726Z,100613.84
2023-04-20T13:57:19.962Z,100600.94
2023-04-20T14:02:14.646Z,100545.66
2023-04-20T14:07:08.112Z,100627.09
2023-04-20T14:12:02.403Z,100631.97
2023-04-20T14:16:57.799Z,100598.38
2023-04-20T14:21:55.405Z,100624.69
2023-04-20T14:26:48.630Z,100589.63
2023-04-20T14:31:41.944Z,100606.25
2023-04-20T14:36:35.259Z,100607.16
2023-04-20T14:41:33.571Z,100625.03
2023-04-20T14:46:29.272Z,100614.56
2023-04-20T14:51:22.482Z,100656.25
2023-04-20T14:56:15.695Z,100652.66
2023-04-20T15:01:11.734Z,100641.31
2023-04-20T15:06:05.083Z,100664.41
2023-04-20T15:10:58.666Z,100656.34
2023-04-20T15:15:55.012Z,100629.94
2023-04-20T15:20:53.664Z,100612.44
2023-04-20T15:25:46.917Z,100660.38
2023-04-20T15:30:42.633Z,100596.69
2023-04-20T15:35:36.227Z,100598.75
2023-04-20T15:40:30.861Z,100556.34
2023-04-20T15:45:24.250Z,100691.28
2023-04-20T15:50:20.873Z,100681.88
2023-04-20T15:55:14.162Z,100682.47
2023-04-20T16:00:11.286Z,100673.13
2023-04-20T16:05:05.067Z,100669.44
2023-04-20T16:09:58.211Z,100663.25
2023-04-20T16:14:53.920Z,100654.69
2023-04-20T16:19:48.938Z,100618.47
2023-04-20T16:24:42.588Z,100655.84
2023-04-20T16:29:36.089Z,100539.59
2023-04-20T16:34:30.633Z,100635.34
2023-04-20T16:39:25.499Z,100594.13
2023-04-20T16:44:19.103Z,100651.06
2023-04-20T16:49:13.763Z,100697.38
2023-04-20T16:54:06.981Z,100522.47
2023-04-20T16:59:01.879Z,100631.72
2023-04-20T17:03:55.317Z,100688.84
2023-04-20T17:08:49.521Z,100702.78
2023-04-20T17:13:42.911Z,100700.84
2023-04-20T17:18:41.223Z,100695.22
2023-04-20T17:23:38.306Z,100704.31
2023-04-20T17:28:31.798Z,100731.56
2023-04-20T17:33:25.248Z,100697.19
2023-04-20T17:38:20.100Z,100695.19
2023-04-20T17:43:13.327Z,100708.50
2023-04-20T17:48:07.442Z,100710.16
2023-04-20T17:53:06.431Z,100761.72
2023-04-20T17:58:01.663Z,100728.66
2023-04-20T18:02:55.247Z,100739.31
2023-04-20T18:07:48.816Z,100772.78
2023-04-20T18:12:42.421Z,100777.72
2023-04-20T18:17:37.305Z,100719.13
2023-04-20T18:22:30.580Z,100793.81
2023-04-20T18:27:25.770Z,100804.72
2023-04-20T18:32:19.304Z,100752.84
2023-04-20T18:37:16.828Z,100655.63
2023-04-20T18:42:12.458Z,100689.97
2023-04-20T18:47:05.893Z,100738.00
2023-04-20T18:52:05.458Z,100746.66
2023-04-20T18:57:00.166Z,100720.25
2023-04-20T19:01:53.544Z,100721.00
2023-04-20T19:06:46.940Z,100736.81
2023-04-20T19:11:49.046Z,100764.41
2023-04-20T19:16:43.661Z,100748.97
2023-04-20T19:21:37.155Z,100710.06
2023-04-20T19:26:30.430Z,100742.75
2023-04-20T19:31:23.769Z,100759.75
2023-04-20T19:36:19.232Z,100738.81
2023-04-20T19:41:12.411Z,100793.88
2023-04-20T19:46:09.618Z,100748.81
2023-04-20T19:51:05.797Z,100764.03
2023-04-20T19:56:00.592Z,100799.69
2023-04-20T20:00:55.101Z,100795.28
2023-04-20T20:05:48.400Z,100779.72
2023-04-20T20:10:41.932Z,100739.50
2023-04-20T20:15:41.979Z,100695.47
2023-04-20T20:20:37.888Z,100795.75
2023-04-20T20:25:31.977Z,100778.50
2023-04-20T20:30:26.131Z,100788.72
2023-04-20T20:35:21.400Z,100768.75
2023-04-20T20:40:15.489Z,100720.06
2023-04-20T20:45:12.581Z,100692.78
2023-04-20T20:50:09.585Z,100820.25
2023-04-20T20:55:04.618Z,100812.63
2023-04-20T21:00:00.432Z,100776.09
2023-04-20T21:04:53.775Z,100808.09
2023-04-20T21:09:47.056Z,100801.53
2023-04-20T21:14:43.330Z,100764.19
2023-04-20T21:19:36.513Z,100769.09
2023-04-20T21:24:30.172Z,100762.19
2023-04-20T21:29:23.599Z,100775.38
2023-04-20T21:34:18.292Z,100622.63
2023-04-20T21:39:17.268Z,100768.72
2023-04-20T21:44:13.251Z,100663.28
2023-04-20T21:49:09.399Z,100747.19
2023-04-20T21:54:04.197Z,100676.16
2023-04-20T21:58:57.630Z,100692.00
2023-04-20T22:04:09.049Z,100733.38
2023-04-20T22:09:08.233Z,100734.47
2023-04-20T22:14:01.549Z,100692.47
2023-04-20T22:18:54.718Z,100676.66
2023-04-20T22:23:47.762Z,100706.88
2023-04-20T22:28:42.525Z,100701.66
2023-04-20T22:33:36.444Z,100715.84
2023-04-20T22:38:29.706Z,100719.31
2023-04-20T22:43:23.501Z,100710.53
2023-04-20T22:48:20.814Z,100716.31
2023-04-20T22:53:14.528Z,100705.38
2023-04-20T22:58:07.738Z,100690.19
2023-04-20T23:03:01.138Z,100673.41
2023-04-20T23:07:56.955Z,100691.22
2023-04-20T23:12:50.739Z,100709.69
2023-04-20T23:17:43.981Z,100685.50
2023-04-20T23:22:37.463Z,100648.06
2023-04-20T23:27:32.029Z,100725.56
2023-04-20T23:32:26.012Z,100734.69
2023-04-20T23:37:19.241Z,100690.47
2023-04-20T23:42:12.339Z,100703.31
2023-04-20T23:47:09.894Z,100576.78
2023-04-20T23:52:03.325Z,100644.94
2023-04-20T23:56:57.022Z,100661.72
